WMT72Z LROP-LIBR
Flight info
| Callsign | WMT72Z |
|---|---|
| Flight time | 1h 18m |
| Altitude | 38000 |
| Route | POLUN1K POLUN DCT TIMUR DCT LUKOV N731 LETNI DCT DOBAR DCT UNDER DCT DITAN DCT PAPIZ P92 ABADI ABADI2Y |
| Aircraft | A320/M-SDE3FGHIRWY/LB1 |
Departure
| Time | 2026-04-21 17:10 |
|---|---|
| Airport | Bucharest Henri Coandă International Airport (LROP) |
Arrival
| Time | 2026-04-21 18:29 |
|---|---|
| Airport | Brindisi Airport (LIBR) |
| Time | Latitude | Longitude | Altitude | Speed | Heading |
|---|---|---|---|---|---|
| 2026-04-21 16:46 | 44.56881 | 26.08119 | 322 ft | 0 kts | 174° |
| 2026-04-21 17:03 | 44.56878 | 26.08120 | 323 ft | 2 kts | 174° |
| 2026-04-21 17:04 | 44.56835 | 26.08127 | 322 ft | 11 kts | 167° |
| 2026-04-21 17:04 | 44.56811 | 26.08213 | 323 ft | 12 kts | 70° |
| 2026-04-21 17:04 | 44.56853 | 26.08328 | 323 ft | 15 kts | 63° |
| 2026-04-21 17:04 | 44.56893 | 26.08452 | 323 ft | 14 kts | 79° |
| 2026-04-21 17:05 | 44.56940 | 26.08548 | 323 ft | 14 kts | 4° |
| 2026-04-21 17:05 | 44.57048 | 26.08532 | 323 ft | 17 kts | 354° |
| 2026-04-21 17:05 | 44.57173 | 26.08514 | 322 ft | 19 kts | 354° |
| 2026-04-21 17:05 | 44.57287 | 26.08498 | 323 ft | 17 kts | 354° |
| 2026-04-21 17:06 | 44.57411 | 26.08479 | 323 ft | 18 kts | 354° |
| 2026-04-21 17:06 | 44.57527 | 26.08463 | 323 ft | 14 kts | 353° |
| 2026-04-21 17:06 | 44.57554 | 26.08458 | 323 ft | 0 kts | 354° |
| 2026-04-21 17:07 | 44.57574 | 26.08455 | 323 ft | 10 kts | 354° |
| 2026-04-21 17:07 | 44.57653 | 26.08449 | 323 ft | 9 kts | 13° |
| 2026-04-21 17:07 | 44.57667 | 26.08501 | 324 ft | 0 kts | 84° |
| 2026-04-21 17:09 | 44.57668 | 26.08508 | 322 ft | 5 kts | 84° |
| 2026-04-21 17:09 | 44.57692 | 26.08832 | 322 ft | 69 kts | 83° |
| 2026-04-21 17:09 | 44.57766 | 26.09801 | 323 ft | 127 kts | 84° |
| 2026-04-21 17:10 | 44.57873 | 26.11233 | 527 ft | 155 kts | 84° |
| 2026-04-21 17:10 | 44.57975 | 26.12714 | 1264 ft | 152 kts | 84° |
| 2026-04-21 17:10 | 44.58077 | 26.14167 | 1988 ft | 152 kts | 84° |
| 2026-04-21 17:10 | 44.58197 | 26.15726 | 2451 ft | 168 kts | 84° |
| 2026-04-21 17:11 | 44.58312 | 26.17454 | 2771 ft | 192 kts | 91° |
| 2026-04-21 17:11 | 44.57873 | 26.19318 | 3174 ft | 218 kts | 128° |
| 2026-04-21 17:11 | 44.56532 | 26.20476 | 3620 ft | 246 kts | 168° |
| 2026-04-21 17:11 | 44.54803 | 26.20165 | 4328 ft | 261 kts | 208° |
| 2026-04-21 17:12 | 44.53491 | 26.18439 | 5253 ft | 262 kts | 240° |
| 2026-04-21 17:12 | 44.52724 | 26.16128 | 6307 ft | 261 kts | 252° |
| 2026-04-21 17:12 | 44.52161 | 26.13709 | 7309 ft | 262 kts | 255° |
| 2026-04-21 17:12 | 44.51615 | 26.11263 | 8254 ft | 265 kts | 254° |
| 2026-04-21 17:13 | 44.51018 | 26.08804 | 9162 ft | 269 kts | 253° |
| 2026-04-21 17:13 | 44.50359 | 26.06338 | 10056 ft | 273 kts | 251° |
| 2026-04-21 17:13 | 44.49630 | 26.03795 | 10528 ft | 292 kts | 250° |
| 2026-04-21 17:13 | 44.48815 | 26.01077 | 10935 ft | 309 kts | 249° |
| 2026-04-21 17:14 | 44.47952 | 25.98287 | 11647 ft | 315 kts | 249° |
| 2026-04-21 17:14 | 44.47064 | 25.95464 | 12435 ft | 319 kts | 249° |
| 2026-04-21 17:14 | 44.46159 | 25.92610 | 13237 ft | 322 kts | 249° |
| 2026-04-21 17:14 | 44.45246 | 25.89731 | 14000 ft | 325 kts | 249° |
| 2026-04-21 17:15 | 44.44330 | 25.86834 | 14747 ft | 326 kts | 249° |
| 2026-04-21 17:15 | 44.43415 | 25.83936 | 15504 ft | 325 kts | 249° |
| 2026-04-21 17:15 | 44.42501 | 25.81039 | 16287 ft | 325 kts | 249° |
| 2026-04-21 17:15 | 44.41588 | 25.78158 | 17085 ft | 324 kts | 249° |
| 2026-04-21 17:16 | 44.40673 | 25.75278 | 17883 ft | 323 kts | 249° |
| 2026-04-21 17:16 | 44.39762 | 25.72412 | 18594 ft | 323 kts | 250° |
| 2026-04-21 17:16 | 44.38851 | 25.69547 | 19282 ft | 323 kts | 250° |
| 2026-04-21 17:16 | 44.37937 | 25.66671 | 19950 ft | 324 kts | 250° |
| 2026-04-21 17:17 | 44.37023 | 25.63794 | 20621 ft | 325 kts | 250° |
| 2026-04-21 17:17 | 44.36108 | 25.60904 | 21235 ft | 326 kts | 251° |
| 2026-04-21 17:17 | 44.35188 | 25.58006 | 21845 ft | 327 kts | 251° |
| 2026-04-21 17:17 | 44.34260 | 25.55093 | 22426 ft | 328 kts | 251° |
| 2026-04-21 17:18 | 44.33326 | 25.52174 | 23030 ft | 330 kts | 251° |
| 2026-04-21 17:18 | 44.32389 | 25.49242 | 23616 ft | 331 kts | 251° |
| 2026-04-21 17:18 | 44.31451 | 25.46307 | 24096 ft | 333 kts | 251° |
| 2026-04-21 17:18 | 44.30504 | 25.43341 | 24561 ft | 335 kts | 251° |
| 2026-04-21 17:19 | 44.29556 | 25.40376 | 25084 ft | 335 kts | 252° |
| 2026-04-21 17:19 | 44.28611 | 25.37436 | 25552 ft | 337 kts | 251° |
| 2026-04-21 17:19 | 44.27645 | 25.34443 | 25943 ft | 340 kts | 252° |
| 2026-04-21 17:19 | 44.26669 | 25.31417 | 26308 ft | 344 kts | 252° |
| 2026-04-21 17:20 | 44.25682 | 25.28357 | 26729 ft | 347 kts | 252° |
| 2026-04-21 17:20 | 44.24691 | 25.25281 | 27149 ft | 349 kts | 252° |
| 2026-04-21 17:20 | 44.23601 | 25.22226 | 27563 ft | 356 kts | 245° |
| 2026-04-21 17:20 | 44.22133 | 25.19376 | 27972 ft | 364 kts | 240° |
| 2026-04-21 17:21 | 44.20588 | 25.16564 | 28397 ft | 366 kts | 240° |
| 2026-04-21 17:21 | 44.19558 | 25.14690 | 28662 ft | 368 kts | 240° |
| 2026-04-21 17:21 | 44.17469 | 25.10885 | 29211 ft | 371 kts | 240° |
| 2026-04-21 17:21 | 44.15895 | 25.08026 | 29634 ft | 374 kts | 240° |
| 2026-04-21 17:22 | 44.14844 | 25.06119 | 29902 ft | 375 kts | 240° |
| 2026-04-21 17:22 | 44.12699 | 25.02231 | 30304 ft | 381 kts | 240° |
| 2026-04-21 17:22 | 44.11076 | 24.99298 | 30614 ft | 384 kts | 240° |
| 2026-04-21 17:22 | 44.09444 | 24.96349 | 30944 ft | 387 kts | 240° |
| 2026-04-21 17:23 | 44.07798 | 24.93372 | 31282 ft | 389 kts | 239° |
| 2026-04-21 17:23 | 44.06144 | 24.90379 | 31619 ft | 391 kts | 239° |
| 2026-04-21 17:23 | 44.04476 | 24.87381 | 32031 ft | 393 kts | 238° |
| 2026-04-21 17:23 | 44.02519 | 24.84669 | 32482 ft | 401 kts | 229° |
| 2026-04-21 17:24 | 44.00428 | 24.82117 | 32964 ft | 400 kts | 229° |
| 2026-04-21 17:24 | 43.98331 | 24.79577 | 33458 ft | 399 kts | 228° |
| 2026-04-21 17:24 | 43.96240 | 24.77056 | 33950 ft | 398 kts | 228° |
| 2026-04-21 17:24 | 43.94156 | 24.74545 | 34361 ft | 397 kts | 228° |
| 2026-04-21 17:25 | 43.92068 | 24.72028 | 34703 ft | 398 kts | 228° |
| 2026-04-21 17:25 | 43.89980 | 24.69506 | 35027 ft | 399 kts | 228° |
| 2026-04-21 17:25 | 43.87886 | 24.66978 | 35343 ft | 400 kts | 228° |
| 2026-04-21 17:25 | 43.85779 | 24.64439 | 35641 ft | 401 kts | 228° |
| 2026-04-21 17:26 | 43.83668 | 24.61896 | 35907 ft | 402 kts | 227° |
| 2026-04-21 17:26 | 43.81552 | 24.59352 | 36222 ft | 403 kts | 227° |
| 2026-04-21 17:26 | 43.79460 | 24.56838 | 36523 ft | 404 kts | 227° |
| 2026-04-21 17:26 | 43.77336 | 24.54289 | 36817 ft | 405 kts | 227° |
| 2026-04-21 17:27 | 43.75205 | 24.51739 | 37105 ft | 406 kts | 227° |
| 2026-04-21 17:27 | 43.73068 | 24.49182 | 37392 ft | 406 kts | 227° |
| 2026-04-21 17:27 | 43.70931 | 24.46623 | 37661 ft | 408 kts | 227° |
| 2026-04-21 17:27 | 43.68785 | 24.44055 | 37919 ft | 409 kts | 227° |
| 2026-04-21 17:28 | 43.64471 | 24.38909 | 38013 ft | 409 kts | 227° |
| 2026-04-21 17:28 | 43.60166 | 24.33785 | 38010 ft | 408 kts | 227° |
| 2026-04-21 17:29 | 43.55863 | 24.28672 | 38011 ft | 408 kts | 227° |
| 2026-04-21 17:29 | 43.51554 | 24.23560 | 37987 ft | 408 kts | 227° |
| 2026-04-21 17:30 | 43.47251 | 24.18458 | 38013 ft | 408 kts | 227° |
| 2026-04-21 17:30 | 43.42939 | 24.13359 | 38016 ft | 409 kts | 227° |
| 2026-04-21 17:31 | 43.38621 | 24.08267 | 38019 ft | 409 kts | 227° |
| 2026-04-21 17:31 | 43.34292 | 24.03175 | 38007 ft | 409 kts | 227° |
| 2026-04-21 17:32 | 43.29962 | 23.98088 | 38013 ft | 410 kts | 227° |
| 2026-04-21 17:32 | 43.25628 | 23.93002 | 38024 ft | 410 kts | 227° |
| 2026-04-21 17:33 | 43.21283 | 23.87913 | 38028 ft | 410 kts | 226° |
| 2026-04-21 17:33 | 43.16929 | 23.82840 | 38004 ft | 411 kts | 226° |
| 2026-04-21 17:34 | 43.13301 | 23.78614 | 38015 ft | 412 kts | 226° |
| 2026-04-21 17:34 | 43.08932 | 23.73522 | 38022 ft | 413 kts | 226° |
| 2026-04-21 17:35 | 43.04552 | 23.68434 | 38011 ft | 413 kts | 226° |
| 2026-04-21 17:35 | 43.00165 | 23.63343 | 38023 ft | 414 kts | 226° |
| 2026-04-21 17:36 | 42.95772 | 23.58259 | 38033 ft | 414 kts | 226° |
| 2026-04-21 17:36 | 42.91364 | 23.53177 | 38043 ft | 415 kts | 226° |
| 2026-04-21 17:37 | 42.86960 | 23.48102 | 38034 ft | 415 kts | 226° |
| 2026-04-21 17:37 | 42.82560 | 23.43020 | 38032 ft | 414 kts | 226° |
| 2026-04-21 17:38 | 42.78149 | 23.37955 | 38034 ft | 415 kts | 226° |
| 2026-04-21 17:38 | 42.73734 | 23.32911 | 38012 ft | 414 kts | 226° |
| 2026-04-21 17:39 | 42.69323 | 23.27873 | 38029 ft | 414 kts | 226° |
| 2026-04-21 17:39 | 42.64912 | 23.22835 | 38039 ft | 414 kts | 226° |
| 2026-04-21 17:40 | 42.60502 | 23.17811 | 38048 ft | 414 kts | 226° |
| 2026-04-21 17:40 | 42.56090 | 23.12782 | 38038 ft | 414 kts | 226° |
| 2026-04-21 17:41 | 42.51685 | 23.07776 | 38053 ft | 414 kts | 226° |
| 2026-04-21 17:41 | 42.47264 | 23.02775 | 38057 ft | 414 kts | 226° |
| 2026-04-21 17:42 | 42.42864 | 22.97804 | 38058 ft | 414 kts | 226° |
| 2026-04-21 17:42 | 42.38411 | 22.92771 | 38055 ft | 414 kts | 226° |
| 2026-04-21 17:43 | 42.33979 | 22.87773 | 38049 ft | 415 kts | 226° |
| 2026-04-21 17:43 | 42.29576 | 22.82826 | 38056 ft | 415 kts | 226° |
| 2026-04-21 17:44 | 42.25112 | 22.77813 | 38026 ft | 414 kts | 226° |
| 2026-04-21 17:44 | 42.20710 | 22.72872 | 38033 ft | 415 kts | 226° |
| 2026-04-21 17:45 | 42.16265 | 22.67912 | 38042 ft | 415 kts | 226° |
| 2026-04-21 17:45 | 42.11835 | 22.62944 | 38022 ft | 412 kts | 229° |
| 2026-04-21 17:46 | 42.08432 | 22.56956 | 38022 ft | 398 kts | 248° |
| 2026-04-21 17:46 | 42.06094 | 22.50217 | 38023 ft | 397 kts | 249° |
| 2026-04-21 17:47 | 42.03736 | 22.43502 | 38012 ft | 398 kts | 249° |
| 2026-04-21 17:47 | 42.01358 | 22.36772 | 38019 ft | 398 kts | 249° |
| 2026-04-21 17:48 | 41.98987 | 22.30039 | 38005 ft | 398 kts | 249° |
| 2026-04-21 17:48 | 41.96613 | 22.23306 | 38016 ft | 399 kts | 249° |
| 2026-04-21 17:49 | 41.94234 | 22.16589 | 38014 ft | 399 kts | 249° |
| 2026-04-21 17:49 | 41.91847 | 22.09864 | 38024 ft | 399 kts | 249° |
| 2026-04-21 17:50 | 41.89454 | 22.03129 | 38023 ft | 399 kts | 249° |
| 2026-04-21 17:50 | 41.87055 | 21.96393 | 37999 ft | 400 kts | 249° |
| 2026-04-21 17:51 | 41.84659 | 21.89665 | 38008 ft | 400 kts | 249° |
| 2026-04-21 17:51 | 41.82250 | 21.82942 | 38029 ft | 400 kts | 249° |
| 2026-04-21 17:52 | 41.79833 | 21.76217 | 38041 ft | 400 kts | 249° |
| 2026-04-21 17:52 | 41.77412 | 21.69491 | 38061 ft | 401 kts | 249° |
| 2026-04-21 17:53 | 41.75006 | 21.62814 | 38058 ft | 400 kts | 249° |
| 2026-04-21 17:53 | 41.72584 | 21.56106 | 38014 ft | 400 kts | 248° |
| 2026-04-21 17:54 | 41.70150 | 21.49396 | 38026 ft | 400 kts | 248° |
| 2026-04-21 17:54 | 41.67720 | 21.42698 | 38030 ft | 400 kts | 248° |
| 2026-04-21 17:55 | 41.65284 | 21.35995 | 38033 ft | 400 kts | 248° |
| 2026-04-21 17:55 | 41.62840 | 21.29295 | 38030 ft | 400 kts | 248° |
| 2026-04-21 17:56 | 41.60395 | 21.22611 | 38013 ft | 400 kts | 248° |
| 2026-04-21 17:56 | 41.57951 | 21.15936 | 38007 ft | 400 kts | 248° |
| 2026-04-21 17:57 | 41.55499 | 21.09251 | 38018 ft | 400 kts | 248° |
| 2026-04-21 17:57 | 41.53036 | 21.02577 | 38004 ft | 401 kts | 248° |
| 2026-04-21 17:58 | 41.50569 | 20.95894 | 38000 ft | 401 kts | 248° |
| 2026-04-21 17:58 | 41.48101 | 20.89223 | 37973 ft | 401 kts | 248° |
| 2026-04-21 17:59 | 41.45627 | 20.82546 | 37985 ft | 402 kts | 248° |
| 2026-04-21 17:59 | 41.43154 | 20.75874 | 37988 ft | 402 kts | 248° |
| 2026-04-21 18:00 | 41.40670 | 20.69206 | 37991 ft | 402 kts | 248° |
| 2026-04-21 18:00 | 41.38177 | 20.62531 | 37995 ft | 402 kts | 248° |
| 2026-04-21 18:01 | 41.35673 | 20.55866 | 37978 ft | 402 kts | 248° |
| 2026-04-21 18:01 | 41.33155 | 20.49269 | 37968 ft | 404 kts | 244° |
| 2026-04-21 18:02 | 41.30129 | 20.42896 | 37986 ft | 405 kts | 242° |
| 2026-04-21 18:02 | 41.27116 | 20.36627 | 37986 ft | 404 kts | 242° |
| 2026-04-21 18:03 | 41.24051 | 20.30290 | 37927 ft | 405 kts | 242° |
| 2026-04-21 18:03 | 41.22531 | 20.27151 | 37654 ft | 404 kts | 242° |
| 2026-04-21 18:03 | 41.21034 | 20.24060 | 37250 ft | 402 kts | 243° |
| 2026-04-21 18:04 | 41.19523 | 20.20932 | 36626 ft | 402 kts | 242° |
| 2026-04-21 18:04 | 41.18008 | 20.17800 | 35998 ft | 403 kts | 243° |
| 2026-04-21 18:04 | 41.16488 | 20.14665 | 35461 ft | 402 kts | 243° |
| 2026-04-21 18:04 | 41.14980 | 20.11566 | 35070 ft | 398 kts | 243° |
| 2026-04-21 18:05 | 41.13486 | 20.08497 | 34623 ft | 395 kts | 243° |
| 2026-04-21 18:05 | 41.12001 | 20.05446 | 34183 ft | 392 kts | 243° |
| 2026-04-21 18:05 | 41.10508 | 20.02379 | 33704 ft | 389 kts | 244° |
| 2026-04-21 18:05 | 41.09066 | 19.99419 | 33245 ft | 385 kts | 244° |
| 2026-04-21 18:06 | 41.07645 | 19.96440 | 32797 ft | 379 kts | 248° |
| 2026-04-21 18:06 | 41.06585 | 19.93299 | 32308 ft | 368 kts | 257° |
| 2026-04-21 18:06 | 41.05928 | 19.90059 | 31847 ft | 362 kts | 261° |
| 2026-04-21 18:06 | 41.05331 | 19.86836 | 31391 ft | 359 kts | 261° |
| 2026-04-21 18:07 | 41.04730 | 19.83633 | 30935 ft | 357 kts | 261° |
| 2026-04-21 18:07 | 41.04130 | 19.80461 | 30497 ft | 354 kts | 261° |
| 2026-04-21 18:07 | 41.03530 | 19.77312 | 30052 ft | 352 kts | 261° |
| 2026-04-21 18:07 | 41.02931 | 19.74184 | 29579 ft | 349 kts | 261° |
| 2026-04-21 18:08 | 41.02339 | 19.71088 | 29151 ft | 345 kts | 261° |
| 2026-04-21 18:08 | 41.01754 | 19.68025 | 28751 ft | 342 kts | 261° |
| 2026-04-21 18:08 | 41.01178 | 19.64986 | 28344 ft | 339 kts | 261° |
| 2026-04-21 18:08 | 41.00607 | 19.61966 | 27942 ft | 336 kts | 261° |
| 2026-04-21 18:09 | 41.00044 | 19.58986 | 27561 ft | 332 kts | 260° |
| 2026-04-21 18:09 | 40.99483 | 19.56032 | 27175 ft | 329 kts | 260° |
| 2026-04-21 18:09 | 40.99106 | 19.54050 | 26920 ft | 327 kts | 260° |
| 2026-04-21 18:09 | 40.98375 | 19.50212 | 26427 ft | 323 kts | 260° |
| 2026-04-21 18:10 | 40.97824 | 19.47344 | 26046 ft | 320 kts | 260° |
| 2026-04-21 18:10 | 40.97279 | 19.44509 | 25656 ft | 317 kts | 260° |
| 2026-04-21 18:10 | 40.96741 | 19.41700 | 25288 ft | 314 kts | 260° |
| 2026-04-21 18:10 | 40.96204 | 19.38910 | 24896 ft | 312 kts | 260° |
| 2026-04-21 18:11 | 40.95668 | 19.36144 | 24475 ft | 310 kts | 259° |
| 2026-04-21 18:11 | 40.95134 | 19.33386 | 24103 ft | 308 kts | 259° |
| 2026-04-21 18:11 | 40.94605 | 19.30643 | 23708 ft | 308 kts | 259° |
| 2026-04-21 18:11 | 40.94119 | 19.27893 | 23280 ft | 306 kts | 261° |
| 2026-04-21 18:12 | 40.93833 | 19.26073 | 23003 ft | 304 kts | 262° |
| 2026-04-21 18:12 | 40.93295 | 19.22418 | 22467 ft | 301 kts | 262° |
| 2026-04-21 18:12 | 40.92902 | 19.19710 | 22073 ft | 299 kts | 262° |
| 2026-04-21 18:12 | 40.92508 | 19.17019 | 21681 ft | 297 kts | 262° |
| 2026-04-21 18:13 | 40.92109 | 19.14347 | 21289 ft | 296 kts | 262° |
| 2026-04-21 18:13 | 40.91974 | 19.13448 | 21154 ft | 295 kts | 262° |
| 2026-04-21 18:13 | 40.91308 | 19.09041 | 20504 ft | 293 kts | 262° |
| 2026-04-21 18:13 | 40.90903 | 19.06402 | 20124 ft | 292 kts | 262° |
| 2026-04-21 18:14 | 40.90087 | 19.01146 | 19349 ft | 292 kts | 262° |
| 2026-04-21 18:14 | 40.89819 | 18.99409 | 19093 ft | 291 kts | 262° |
| 2026-04-21 18:14 | 40.89413 | 18.96785 | 18709 ft | 291 kts | 260° |
| 2026-04-21 18:15 | 40.88746 | 18.94242 | 18320 ft | 296 kts | 248° |
| 2026-04-21 18:15 | 40.87727 | 18.91862 | 17888 ft | 298 kts | 244° |
| 2026-04-21 18:15 | 40.86346 | 18.88738 | 17355 ft | 296 kts | 244° |
| 2026-04-21 18:15 | 40.85313 | 18.86394 | 16971 ft | 295 kts | 244° |
| 2026-04-21 18:16 | 40.84621 | 18.84819 | 16708 ft | 294 kts | 244° |
| 2026-04-21 18:16 | 40.83597 | 18.82486 | 16313 ft | 293 kts | 244° |
| 2026-04-21 18:16 | 40.82581 | 18.80167 | 15929 ft | 292 kts | 244° |
| 2026-04-21 18:16 | 40.81565 | 18.77851 | 15554 ft | 291 kts | 244° |
| 2026-04-21 18:17 | 40.80550 | 18.75543 | 15178 ft | 290 kts | 244° |
| 2026-04-21 18:17 | 40.79534 | 18.73237 | 14792 ft | 290 kts | 244° |
| 2026-04-21 18:17 | 40.78521 | 18.70943 | 14425 ft | 290 kts | 244° |
| 2026-04-21 18:17 | 40.77504 | 18.68645 | 14045 ft | 290 kts | 243° |
| 2026-04-21 18:18 | 40.76486 | 18.66351 | 13649 ft | 290 kts | 243° |
| 2026-04-21 18:18 | 40.75611 | 18.64018 | 13255 ft | 285 kts | 253° |
| 2026-04-21 18:18 | 40.75158 | 18.61498 | 12883 ft | 281 kts | 262° |
| 2026-04-21 18:18 | 40.74819 | 18.58968 | 12515 ft | 279 kts | 262° |
| 2026-04-21 18:19 | 40.74469 | 18.56422 | 12143 ft | 278 kts | 261° |
| 2026-04-21 18:19 | 40.74126 | 18.53953 | 11783 ft | 276 kts | 261° |
| 2026-04-21 18:19 | 40.73782 | 18.51467 | 11421 ft | 275 kts | 261° |
| 2026-04-21 18:19 | 40.73435 | 18.48959 | 11056 ft | 274 kts | 261° |
| 2026-04-21 18:20 | 40.73095 | 18.46525 | 10696 ft | 273 kts | 261° |
| 2026-04-21 18:20 | 40.72745 | 18.44037 | 10340 ft | 272 kts | 261° |
| 2026-04-21 18:20 | 40.72408 | 18.41631 | 10011 ft | 271 kts | 261° |
| 2026-04-21 18:20 | 40.72063 | 18.39178 | 9699 ft | 267 kts | 261° |
| 2026-04-21 18:21 | 40.71703 | 18.36810 | 9275 ft | 268 kts | 255° |
| 2026-04-21 18:21 | 40.70930 | 18.34546 | 8506 ft | 273 kts | 244° |
| 2026-04-21 18:21 | 40.70051 | 18.32381 | 8106 ft | 261 kts | 243° |
| 2026-04-21 18:21 | 40.69205 | 18.30324 | 7744 ft | 250 kts | 243° |
| 2026-04-21 18:22 | 40.68394 | 18.28353 | 7406 ft | 240 kts | 243° |
| 2026-04-21 18:22 | 40.67609 | 18.26448 | 7054 ft | 232 kts | 243° |
| 2026-04-21 18:22 | 40.66854 | 18.24606 | 6707 ft | 225 kts | 243° |
| 2026-04-21 18:22 | 40.66126 | 18.22827 | 6377 ft | 217 kts | 242° |
| 2026-04-21 18:23 | 40.65418 | 18.21100 | 6019 ft | 211 kts | 242° |
| 2026-04-21 18:23 | 40.64730 | 18.19421 | 5650 ft | 205 kts | 242° |
| 2026-04-21 18:23 | 40.64276 | 18.18313 | 5420 ft | 202 kts | 242° |
| 2026-04-21 18:23 | 40.63403 | 18.16183 | 4954 ft | 197 kts | 241° |
| 2026-04-21 18:24 | 40.62758 | 18.14615 | 4630 ft | 191 kts | 240° |
| 2026-04-21 18:24 | 40.62142 | 18.13118 | 4271 ft | 182 kts | 241° |
| 2026-04-21 18:24 | 40.61554 | 18.11690 | 3909 ft | 172 kts | 240° |
| 2026-04-21 18:24 | 40.61006 | 18.10359 | 3575 ft | 160 kts | 240° |
| 2026-04-21 18:25 | 40.60485 | 18.09088 | 3224 ft | 155 kts | 240° |
| 2026-04-21 18:25 | 40.59980 | 18.07860 | 2867 ft | 151 kts | 241° |
| 2026-04-21 18:25 | 40.59478 | 18.06644 | 2486 ft | 152 kts | 241° |
| 2026-04-21 18:25 | 40.59017 | 18.05390 | 2107 ft | 153 kts | 254° |
| 2026-04-21 18:26 | 40.58947 | 18.04032 | 1867 ft | 146 kts | 280° |
| 2026-04-21 18:26 | 40.59299 | 18.02804 | 1698 ft | 143 kts | 304° |
| 2026-04-21 18:26 | 40.59963 | 18.01852 | 1534 ft | 141 kts | 318° |
| 2026-04-21 18:26 | 40.60681 | 18.00978 | 1350 ft | 140 kts | 319° |
| 2026-04-21 18:27 | 40.61394 | 18.00109 | 1160 ft | 139 kts | 319° |
| 2026-04-21 18:27 | 40.62103 | 17.99249 | 969 ft | 139 kts | 319° |
| 2026-04-21 18:27 | 40.62810 | 17.98381 | 763 ft | 138 kts | 317° |
| 2026-04-21 18:27 | 40.63509 | 17.97515 | 571 ft | 138 kts | 317° |
| 2026-04-21 18:28 | 40.64217 | 17.96668 | 395 ft | 137 kts | 315° |
| 2026-04-21 18:28 | 40.64909 | 17.95818 | 236 ft | 136 kts | 315° |
| 2026-04-21 18:28 | 40.65605 | 17.94972 | 58 ft | 136 kts | 314° |
| 2026-04-21 18:28 | 40.66222 | 17.94218 | 34 ft | 99 kts | 317° |
| 2026-04-21 18:29 | 40.66603 | 17.93755 | 33 ft | 47 kts | 317° |
| 2026-04-21 18:29 | 40.66721 | 17.93632 | 32 ft | 13 kts | 352° |
| 2026-04-21 18:29 | 40.66773 | 17.93675 | 33 ft | 11 kts | 49° |
| 2026-04-21 18:29 | 40.66817 | 17.93783 | 33 ft | 10 kts | 115° |
| 2026-04-21 18:30 | 40.66759 | 17.93857 | 33 ft | 15 kts | 137° |
| 2026-04-21 18:30 | 40.66661 | 17.93977 | 33 ft | 21 kts | 137° |
| 2026-04-21 18:30 | 40.66544 | 17.94120 | 34 ft | 24 kts | 137° |
| 2026-04-21 18:30 | 40.66410 | 17.94282 | 34 ft | 28 kts | 138° |
| 2026-04-21 18:31 | 40.66281 | 17.94442 | 33 ft | 22 kts | 137° |
| 2026-04-21 18:31 | 40.66159 | 17.94591 | 32 ft | 25 kts | 137° |
| 2026-04-21 18:31 | 40.66071 | 17.94697 | 33 ft | 11 kts | 142° |
| 2026-04-21 18:31 | 40.66000 | 17.94654 | 33 ft | 14 kts | 234° |
| 2026-04-21 18:32 | 40.65931 | 17.94536 | 32 ft | 18 kts | 232° |
| 2026-04-21 18:32 | 40.65854 | 17.94404 | 32 ft | 19 kts | 233° |
| 2026-04-21 18:32 | 40.65805 | 17.94290 | 33 ft | 11 kts | 283° |
| 2026-04-21 18:32 | 40.65772 | 17.94206 | 33 ft | 12 kts | 230° |
| 2026-04-21 18:33 | 40.65752 | 17.94145 | 33 ft | 8 kts | 295° |
| 2026-04-21 18:33 | 40.65782 | 17.94111 | 33 ft | 4 kts | 324° |
| 2026-04-21 18:33 | 40.65792 | 17.94101 | 33 ft | 1 kts | 324° |